Startpagina
METAR-TAF:

METAR-TAF

Vliegvelden :

Vliegveld de Kooy

Den Helder, Nederland

breedte: 52-55N, lengte: 004-47E, hoogte: 0 m

Actueel weer

Dit bericht is 9 minuten geleden gemaakt, om 12:25 UTC
Wind 12 kt uit het oostnoordoosten
Temperatuur 22°C
Vochtigheid 50%
Druk 1016 hPa
Zicht 10 km of meer
geen wolken onder 1500 m en geen cumulonimbus

METAR: EHKD 211225Z AUTO 07012KT 9999 NCD 22/11 Q1016 BLU 07012KT CAVOK

Tijdstip: 14:34 (12:34 UTC)

Verwachting

Dit bericht is 3 uur en het 50 minuten geleden gemaakt, om 08:44 UTC
Verwachting geldig van 21 om 09 UTC tot 21 om 21 UTC
Wind 10 kt uit het oosten
Zicht 10 km of meer
geen wolken onder 1500 m en geen cumulonimbus
Tijdelijke
van 21 om 09 UTC tot 21 om 15 UTC
Wind 12 kt uit het oostnoordoosten met uitschieters tot 22 kt

TAF: EHKD 210844Z 2109/2121 08010KT CAVOK TEMPO 2109/2115 07012G22KT

Waarnemingen en weersverwachtingen van meer dan 4000 vliegvelden (METAR en TAF).

De beschikbare stations zijn de gele en rode punten op de kaart.

Ga met uw muis naar het station om de naam te zien.

Klik dan om waarnemingen en weersverwachtingen te zien.

kaart wijzigen: klik op de groene knoppen met een zwart kruis om in te zoomen, op de groene knop met een streepje om uit te zoomen of op de groene pijlen voor aangrenzende kaarten.


METAR-TAF: